Skip Navigation Links Skip Navigation Links

Current Weather

Twin County, Galax Hillsville, Va.

For information only: do not use for flight planning or navigation.
Latest weather
Observation time Thursday, October 18, 2018 1:35 AM EDT
Local time Thursday, October 18, 2018 1:57 AM EDT
Flight conditions Visual Meteorological Conditions
Winds
Wind direction Northwest (310°)
Wind speed 17 mph
Visibility 10 mi.
Sky condition
Ceiling unlimited
Sky clear
Temperature 48°F
Dewpoint 35°F
Altimeter 30.27 in.Hg
Derived measurements
Relative humidity 61%
Wind chill 41°F
Density altitude 1642 ft.
Remarks
Fully automated report.
Automated weather observing station with precipitation discriminator.
METAR KHLX 180535Z AUTO 31015KT 10SM CLR 09/02 A3027 RMK AO2 T00870016

Settings

Location code

InnerDrive.Weather 4.0.6770.0 Release CLR 4.0.30319.42000
Copyright ©2018 Inner Drive Technology. All rights reserved. Portions Copyright ©1986-2018 David Braverman.

Find weather

Site navigation


Skip Navigation Links

Place info

Page info

PayPal - The safer, easier way to pay online!

Return home.

Copyright ©2018 Inner Drive Technology. Purveyors of fine, hand-crafted computer software. Page printed 2018-10-18T05:57:36 UTC.